Time;durP1;ratioP1;P1;durP2;ratioP2;P2;SDS_P1;SDS_P2;PMS_P1;PMS_P2;Temp;Humidity;BMP_temperature;BMP_pressure;BME280_temperature;BME280_humidity;BME280_pressure;Samples;Min_cycle;Max_cycle;Signal;HPM_P1;HPM_P2
2022/09/08 00:00:47;;;;;;;8.32;5.88;;;;;;;18.09;65.57;100200.59;4904464;28;98217;-67
2022/09/08 00:03:16;;;;;;;9.93;5.72;;;;;;;18.05;65.53;100194.97;4870407;28;98137;-76
2022/09/08 00:06:01;;;;;;;9.65;5.80;;;;;;;18.02;65.30;100192.09;4850473;28;98468;-76
2022/09/08 00:08:30;;;;;;;8.10;5.55;;;;;;;18.01;65.66;100185.03;4855757;28;98477;-67
2022/09/08 00:10:58;;;;;;;8.02;5.55;;;;;;;17.99;65.41;100181.81;4861065;28;99072;-67
2022/09/08 00:13:25;;;;;;;8.30;5.45;;;;;;;17.97;65.43;100184.09;4884056;28;98437;-76
2022/09/08 00:15:52;;;;;;;8.27;5.47;;;;;;;17.93;65.74;100183.13;4879852;28;98011;-76
2022/09/08 00:18:20;;;;;;;8.55;5.82;;;;;;;17.90;65.56;100185.38;4895678;28;98261;-68
2022/09/08 00:20:47;;;;;;;8.52;6.03;;;;;;;17.87;65.69;100180.56;4877983;28;98328;-67
2022/09/08 00:23:15;;;;;;;6.95;5.47;;;;;;;17.86;65.22;100184.41;4872515;28;98067;-68
2022/09/08 00:25:43;;;;;;;8.13;5.72;;;;;;;17.86;65.67;100183.63;4884020;28;97976;-67
2022/09/08 00:28:11;;;;;;;7.15;5.80;;;;;;;17.84;65.81;100183.94;4850103;28;98351;-76
2022/09/08 00:30:39;;;;;;;9.40;6.07;;;;;;;17.84;65.62;100181.22;4897843;28;98201;-76
2022/09/08 00:33:05;;;;;;;17.48;5.63;;;;;;;17.82;65.57;100175.28;4880161;28;98061;-67
2022/09/08 00:35:33;;;;;;;10.98;5.60;;;;;;;17.82;65.61;100166.31;4904485;28;98287;-76
2022/09/08 00:38:00;;;;;;;7.88;5.25;;;;;;;17.80;65.51;100163.91;4885921;28;98416;-76
2022/09/08 00:40:29;;;;;;;8.93;6.35;;;;;;;17.78;65.67;100163.41;4889410;28;98170;-75
2022/09/08 00:43:05;;;;;;;11.23;6.03;;;;;;;17.75;65.33;100158.59;4892632;28;97967;-76
2022/09/08 00:45:38;;;;;;;8.60;6.18;;;;;;;17.74;65.47;100158.91;4870968;28;98364;-67
2022/09/08 00:48:15;;;;;;;9.40;5.60;;;;;;;17.72;65.62;100153.75;4880057;28;98690;-67
2022/09/08 00:50:42;;;;;;;9.52;5.78;;;;;;;17.71;65.69;100154.88;4869586;28;98457;-67
2022/09/08 00:53:11;;;;;;;9.48;6.70;;;;;;;17.69;65.60;100151.69;4902049;28;97977;-67
2022/09/08 00:55:40;;;;;;;8.93;5.80;;;;;;;17.69;65.79;100156.34;4895183;28;98485;-76
2022/09/08 00:58:07;;;;;;;7.78;5.63;;;;;;;17.66;65.79;100155.88;4858257;28;99788;-67
2022/09/08 01:00:40;;;;;;;10.27;5.72;;;;;;;17.63;65.56;100155.69;4864729;28;98144;-68
2022/09/08 01:03:12;;;;;;;9.85;6.03;;;;;;;17.63;65.74;100155.69;4848652;28;98108;-68
2022/09/08 01:06:09;;;;;;;9.90;5.90;;;;;;;17.60;65.44;100153.63;4866116;28;99529;-67
2022/09/08 01:14:52;;;;;;;9.55;5.82;;;;;;;17.55;65.42;100145.59;4881208;28;97895;-76
2022/09/08 01:17:29;;;;;;;8.85;5.60;;;;;;;17.53;65.69;100145.94;4884144;28;98142;-68
2022/09/08 01:19:56;;;;;;;8.35;5.78;;;;;;;17.54;65.78;100149.47;4834895;28;98278;-77
2022/09/08 01:22:51;;;;;;;10.20;5.70;;;;;;;17.53;65.50;100145.94;4836910;28;98006;-67
2022/09/08 01:25:45;;;;;;;8.05;5.60;;;;;;;17.52;65.59;100140.78;4882797;28;98374;-68
2022/09/08 01:28:40;;;;;;;8.48;5.88;;;;;;;17.49;65.84;100139.53;4883879;28;97991;-76
2022/09/08 01:31:07;;;;;;;9.88;5.93;;;;;;;17.48;65.83;100132.47;4876014;28;98644;-68
2022/09/08 01:33:35;;;;;;;9.07;5.53;;;;;;;17.48;66.03;100129.75;4873833;28;98076;-76
2022/09/08 01:36:10;;;;;;;7.82;5.00;;;;;;;17.47;65.62;100130.88;4849158;28;101505;-76
2022/09/08 01:38:37;;;;;;;7.53;5.57;;;;;;;17.46;66.20;100128.47;4870150;28;98011;-67
2022/09/08 01:41:05;;;;;;;8.55;5.57;;;;;;;17.45;66.00;100127.69;4836141;28;98745;-76
2022/09/08 01:43:32;;;;;;;7.90;5.45;;;;;;;17.46;66.19;100125.75;4836865;28;98457;-76
2022/09/08 01:45:59;;;;;;;8.82;5.53;;;;;;;17.45;66.11;100122.22;4873036;28;98134;-68
2022/09/08 01:48:27;;;;;;;10.68;5.78;;;;;;;17.48;66.30;100118.84;4832707;28;97938;-68
2022/09/08 01:50:59;;;;;;;10.25;5.85;;;;;;;17.52;66.14;100119.00;4847753;28;99402;-68
2022/09/08 01:53:26;;;;;;;7.00;5.15;;;;;;;17.55;66.16;100116.44;4839413;28;98221;-68
2022/09/08 01:55:53;;;;;;;7.68;4.90;;;;;;;17.59;66.19;100113.88;4872425;28;98910;-76
2022/09/08 01:58:20;;;;;;;7.05;5.32;;;;;;;17.61;66.04;100114.38;4871119;28;97961;-68
2022/09/08 02:00:46;;;;;;;8.13;5.68;;;;;;;17.62;66.19;100115.97;4845648;28;98468;-68
2022/09/08 02:03:12;;;;;;;8.65;5.40;;;;;;;17.62;65.87;100113.22;4873797;28;100011;-68
2022/09/08 02:05:40;;;;;;;7.00;5.20;;;;;;;17.63;65.87;100118.34;4876829;28;97826;-68
2022/09/08 02:08:06;;;;;;;10.18;6.03;;;;;;;17.64;66.00;100119.16;4854462;28;98029;-76
2022/09/08 02:10:33;;;;;;;7.00;5.03;;;;;;;17.63;65.88;100115.63;4850763;28;98015;-76
2022/09/08 02:13:01;;;;;;;10.18;4.97;;;;;;;17.60;65.94;100110.81;4840815;28;98376;-77
2022/09/08 02:15:27;;;;;;;8.50;4.38;;;;;;;17.60;65.95;100112.75;4873238;28;99836;-69
2022/09/08 02:17:54;;;;;;;7.05;5.05;;;;;;;17.59;66.09;100103.75;4852908;28;97972;-68
2022/09/08 02:20:22;;;;;;;8.13;5.25;;;;;;;17.61;65.84;100106.19;4860771;28;97978;-68
2022/09/08 02:22:49;;;;;;;7.93;5.38;;;;;;;17.60;65.95;100097.19;4851038;28;98175;-68
2022/09/08 02:25:18;;;;;;;6.57;5.00;;;;;;;17.60;65.91;100097.19;4881231;28;97909;-68
2022/09/08 02:27:44;;;;;;;9.98;5.50;;;;;;;17.60;65.93;100101.84;4868041;28;97970;-68
2022/09/08 02:30:12;;;;;;;10.20;5.60;;;;;;;17.59;65.78;100094.78;4849457;28;98351;-68
2022/09/08 02:32:39;;;;;;;8.70;5.47;;;;;;;17.57;65.83;100094.34;4851650;28;97991;-77
2022/09/08 02:35:07;;;;;;;8.80;4.95;;;;;;;17.56;65.67;100095.44;4871800;28;98193;-76
2022/09/08 02:37:34;;;;;;;9.18;6.22;;;;;;;17.53;65.91;100087.94;4864203;28;98164;-76
2022/09/08 02:40:03;;;;;;;7.53;5.18;;;;;;;17.52;65.92;100087.09;4844975;28;98548;-68
2022/09/08 02:42:30;;;;;;;6.53;5.32;;;;;;;17.53;65.96;100082.47;4859280;28;98141;-68
2022/09/08 02:44:57;;;;;;;8.95;5.30;;;;;;;17.49;65.91;100081.50;4848707;28;98099;-76
2022/09/08 02:47:24;;;;;;;8.27;5.40;;;;;;;17.49;65.87;100084.22;4835242;28;97953;-68
2022/09/08 02:49:51;;;;;;;7.47;5.05;;;;;;;17.48;65.81;100082.63;4851655;28;98003;-68
2022/09/08 02:52:18;;;;;;;8.02;5.00;;;;;;;17.46;65.98;100085.69;4865366;28;98329;-68
2022/09/08 02:54:46;;;;;;;8.15;5.78;;;;;;;17.46;65.83;100080.22;4871336;28;97954;-68
2022/09/08 02:57:13;;;;;;;8.40;5.45;;;;;;;17.46;65.82;100072.06;4863244;28;98089;-77
2022/09/08 02:59:40;;;;;;;7.57;5.35;;;;;;;17.45;66.04;100075.09;4878114;28;98250;-74
2022/09/08 03:02:06;;;;;;;8.15;5.30;;;;;;;17.43;65.99;100068.03;4863755;28;97997;-77
2022/09/08 03:04:35;;;;;;;7.68;4.82;;;;;;;17.42;65.91;100069.19;4901465;28;99372;-68
2022/09/08 03:07:02;;;;;;;9.45;5.55;;;;;;;17.41;65.70;100062.13;4881519;28;98022;-68
2022/09/08 03:09:30;;;;;;;8.48;5.60;;;;;;;17.39;66.15;100060.84;4890917;28;97922;-76
2022/09/08 03:11:58;;;;;;;6.18;5.15;;;;;;;17.37;65.80;100061.19;4887940;28;98330;-76
2022/09/08 03:14:25;;;;;;;6.68;4.97;;;;;;;17.35;66.00;100044.34;4890966;28;97927;-77
2022/09/08 03:16:52;;;;;;;8.00;5.15;;;;;;;17.33;66.01;100043.06;4904425;28;98070;-68
2022/09/08 03:19:19;;;;;;;7.50;5.10;;;;;;;17.31;65.92;100051.56;4873618;28;98196;-76
2022/09/08 03:21:49;;;;;;;6.90;5.13;;;;;;;17.31;65.90;100046.13;4861854;28;97992;-68
2022/09/08 03:24:16;;;;;;;6.95;4.82;;;;;;;17.31;65.79;100048.84;4870356;28;98251;-76
2022/09/08 03:26:43;;;;;;;7.50;5.35;;;;;;;17.29;65.81;100045.66;4872405;28;97935;-68
2022/09/08 03:29:11;;;;;;;9.18;4.72;;;;;;;17.27;65.93;100053.31;4888008;28;98467;-77
2022/09/08 03:31:39;;;;;;;5.82;4.57;;;;;;;17.25;65.84;100044.69;4869684;28;97967;-68
2022/09/08 03:34:06;;;;;;;7.60;4.60;;;;;;;17.23;66.04;100038.75;4884664;28;97940;-77
2022/09/08 03:36:34;;;;;;;8.68;5.10;;;;;;;17.21;65.91;100038.25;4857894;28;97922;-68
2022/09/08 03:39:01;;;;;;;7.82;5.43;;;;;;;17.20;65.99;100041.31;4877840;28;97972;-77
2022/09/08 03:41:28;;;;;;;8.18;4.80;;;;;;;17.17;65.94;100040.03;4872031;28;98137;-68
2022/09/08 03:43:56;;;;;;;7.25;5.18;;;;;;;17.13;66.17;100034.44;4883624;28;98325;-77
2022/09/08 03:46:23;;;;;;;9.98;5.60;;;;;;;17.09;66.10;100040.84;4856234;28;98028;-68
2022/09/08 03:48:50;;;;;;;8.60;5.65;;;;;;;17.05;66.12;100043.38;4885540;28;99551;-76
2022/09/08 03:51:25;;;;;;;7.93;4.88;;;;;;;17.00;66.07;100035.41;4873833;28;98088;-67
2022/09/08 03:53:54;;;;;;;5.75;4.47;;;;;;;17.01;66.23;100028.03;4873413;28;98160;-68
2022/09/08 03:56:21;;;;;;;6.10;4.82;;;;;;;17.01;66.21;100026.09;4863112;28;97992;-68
2022/09/08 03:58:49;;;;;;;8.38;5.00;;;;;;;17.01;66.25;100011.69;4878068;28;98069;-70
2022/09/08 04:01:18;;;;;;;6.88;5.57;;;;;;;17.00;66.55;100010.91;4879766;28;98310;-68
2022/09/08 04:03:46;;;;;;;10.15;5.85;;;;;;;17.01;66.29;100017.94;4879165;28;98085;-77
2022/09/08 04:06:16;;;;;;;8.63;5.30;;;;;;;17.03;66.47;100014.91;4855712;28;98014;-67
2022/09/08 04:08:43;;;;;;;9.07;5.38;;;;;;;17.02;66.48;100000.50;4868571;28;98411;-68
2022/09/08 04:11:10;;;;;;;8.13;5.20;;;;;;;17.04;66.52;99992.00;4885694;28;98416;-77
2022/09/08 04:13:38;;;;;;;8.00;5.10;;;;;;;17.04;66.49;99992.00;4877222;28;98060;-77
2022/09/08 04:16:05;;;;;;;11.95;5.35;;;;;;;17.04;66.47;99992.00;4893717;28;98125;-77
2022/09/08 04:18:32;;;;;;;7.70;5.78;;;;;;;17.05;66.35;99997.09;4877665;28;98555;-68
2022/09/08 04:21:00;;;;;;;6.82;5.22;;;;;;;17.05;66.58;100004.47;4877637;28;98021;-68
2022/09/08 04:23:27;;;;;;;9.65;5.70;;;;;;;17.04;66.52;100009.13;4885102;28;98569;-68
2022/09/08 04:26:02;;;;;;;11.18;5.20;;;;;;;17.05;66.22;100004.47;4871230;28;98019;-68
2022/09/08 04:28:29;;;;;;;8.75;5.35;;;;;;;17.05;66.44;100010.72;4860725;28;98174;-76
2022/09/08 04:30:56;;;;;;;7.38;5.50;;;;;;;17.04;66.58;100014.56;4874642;28;98162;-68
2022/09/08 04:33:24;;;;;;;6.88;4.63;;;;;;;17.03;66.44;100014.91;4871525;28;98018;-77
2022/09/08 04:35:51;;;;;;;8.30;5.35;;;;;;;17.02;66.46;100013.31;4879138;28;98071;-76
2022/09/08 04:38:19;;;;;;;7.03;4.80;;;;;;;17.03;66.46;100017.63;4879953;28;98402;-68
2022/09/08 04:40:46;;;;;;;7.10;5.10;;;;;;;17.01;66.15;100008.97;4861297;28;99361;-68
2022/09/08 04:43:14;;;;;;;5.55;4.70;;;;;;;17.03;66.30;100014.91;4886181;28;98499;-68
2022/09/08 04:45:41;;;;;;;7.47;5.35;;;;;;;17.04;66.49;100024.66;4873420;28;98265;-68
2022/09/08 04:48:09;;;;;;;10.95;5.78;;;;;;;17.05;66.38;100024.34;4873746;28;98718;-68
2022/09/08 04:50:52;;;;;;;6.40;4.80;;;;;;;17.06;66.12;100017.78;4895877;28;98431;-74
2022/09/08 04:53:20;;;;;;;8.60;5.53;;;;;;;17.10;66.22;100018.75;4891894;28;98109;-68
2022/09/08 04:55:46;;;;;;;11.05;5.25;;;;;;;17.13;66.06;100020.84;4876184;28;98071;-68
2022/09/08 04:58:13;;;;;;;7.57;5.00;;;;;;;17.17;66.17;100019.06;4861836;28;100560;-76
2022/09/08 05:00:40;;;;;;;10.88;5.43;;;;;;;17.20;66.14;100012.16;4895249;28;98310;-76
2022/09/08 05:03:12;;;;;;;10.20;6.03;;;;;;;17.26;66.15;100010.88;4868242;28;98405;-76
2022/09/08 05:05:41;;;;;;;7.63;5.60;;;;;;;17.30;66.13;100005.59;4875316;28;98188;-68
2022/09/08 05:08:08;;;;;;;8.63;5.90;;;;;;;17.35;66.29;100002.69;4862225;28;97987;-68
2022/09/08 05:10:35;;;;;;;8.90;5.78;;;;;;;17.39;66.25;100006.38;4850876;28;99040;-76
2022/09/08 05:13:04;;;;;;;8.93;5.25;;;;;;;17.41;66.32;100004.13;4855405;28;98401;-68
2022/09/08 05:15:32;;;;;;;8.38;5.53;;;;;;;17.46;66.41;100001.22;4872397;28;98032;-77
2022/09/08 05:17:59;;;;;;;8.00;5.80;;;;;;;17.49;66.38;100000.59;4886094;28;99193;-77
2022/09/08 05:20:27;;;;;;;7.90;5.32;;;;;;;17.54;66.35;99994.94;4882447;28;98150;-77
2022/09/08 05:22:55;;;;;;;6.90;4.88;;;;;;;17.61;66.49;99997.19;4882619;28;97957;-77
2022/09/08 05:25:23;;;;;;;7.55;5.28;;;;;;;17.66;66.57;100002.44;4854046;28;98237;-77
2022/09/08 05:27:50;;;;;;;9.77;5.90;;;;;;;17.66;66.36;100013.34;4858266;28;97891;-77
2022/09/08 05:30:17;;;;;;;7.28;5.50;;;;;;;17.67;66.55;100007.56;4846129;28;98245;-77
2022/09/08 05:32:45;;;;;;;8.82;5.85;;;;;;;17.72;66.55;100009.31;4873535;28;99718;-76
2022/09/08 05:35:12;;;;;;;9.50;5.30;;;;;;;17.72;66.62;100001.13;4872917;28;98104;-69
2022/09/08 05:37:39;;;;;;;6.80;5.28;;;;;;;17.75;66.77;99999.72;4880174;28;99864;-76
2022/09/08 05:40:07;;;;;;;7.28;5.38;;;;;;;17.76;66.64;99999.38;4862540;28;98373;-68
2022/09/08 05:42:34;;;;;;;6.97;5.00;;;;;;;17.77;66.70;99994.75;4868627;28;98148;-68
2022/09/08 05:45:02;;;;;;;8.20;5.05;;;;;;;17.78;66.78;99988.97;4844079;28;98145;-77
2022/09/08 05:47:29;;;;;;;7.32;5.22;;;;;;;17.79;66.68;99992.50;4855599;28;98228;-77
2022/09/08 05:50:02;;;;;;;9.07;5.43;;;;;;;17.80;66.55;99994.91;4875678;28;97940;-76
2022/09/08 05:52:31;;;;;;;7.78;5.22;;;;;;;17.80;66.82;99985.91;4884884;28;98817;-68
2022/09/08 05:55:01;;;;;;;9.75;5.35;;;;;;;17.79;66.63;99976.94;4856904;28;98414;-68
2022/09/08 05:57:29;;;;;;;7.18;5.15;;;;;;;17.82;66.90;99976.28;4878651;28;98066;-77
2022/09/08 05:59:56;;;;;;;6.45;4.85;;;;;;;17.85;67.05;99985.75;4862656;28;97948;-68
2022/09/08 06:02:23;;;;;;;8.07;4.95;;;;;;;17.84;66.91;99984.94;4879926;28;97777;-77
2022/09/08 06:04:50;;;;;;;7.32;4.68;;;;;;;17.87;67.05;99978.03;4864195;28;97995;-68
2022/09/08 06:07:17;;;;;;;6.53;4.85;;;;;;;17.88;66.91;99996.78;4854808;28;98375;-68
2022/09/08 06:09:44;;;;;;;8.07;4.82;;;;;;;17.89;66.85;99994.88;4871878;28;98265;-68
2022/09/08 06:12:12;;;;;;;8.55;4.70;;;;;;;17.94;66.89;99996.59;4876275;28;98680;-68
2022/09/08 06:14:39;;;;;;;8.30;5.20;;;;;;;17.98;66.85;99984.72;4882990;28;98129;-77
2022/09/08 06:17:06;;;;;;;5.55;4.55;;;;;;;18.03;66.80;99986.44;4869639;28;98571;-68
2022/09/08 06:19:34;;;;;;;6.38;4.63;;;;;;;18.06;66.72;99986.59;4874937;28;98247;-76
2022/09/08 06:22:01;;;;;;;7.20;4.63;;;;;;;18.08;67.01;99987.06;4894328;28;98422;-68
2022/09/08 06:24:31;;;;;;;7.47;5.00;;;;;;;18.10;66.85;99987.53;4894799;28;98043;-77
2022/09/08 06:27:26;;;;;;;8.25;4.70;;;;;;;18.13;66.58;99983.34;4871268;28;99196;-77
2022/09/08 06:30:14;;;;;;;6.03;4.75;;;;;;;18.14;66.96;99982.22;4887957;28;97858;-68
2022/09/08 06:33:01;;;;;;;5.20;4.38;;;;;;;18.14;66.62;99980.28;4877356;28;99955;-68
2022/09/08 06:35:59;;;;;;;7.50;4.85;;;;;;;18.15;66.75;99995.50;4906891;28;98155;-68
2022/09/08 06:38:33;;;;;;;8.30;4.82;;;;;;;18.17;66.96;100005.31;4874004;28;98336;-77
2022/09/08 06:41:14;;;;;;;6.40;4.88;;;;;;;18.22;66.70;100010.56;4872212;28;97902;-77
2022/09/08 06:43:46;;;;;;;8.15;4.97;;;;;;;18.29;66.84;100010.88;4885170;28;98372;-77
2022/09/08 06:46:20;;;;;;;;;;;;;;;18.44;65.68;100002.13;4872897;28;98499;-76
2022/09/08 06:48:47;;;;;;;8.00;4.45;;;;;;;18.48;66.25;99994.84;4875472;28;98319;-68
2022/09/08 06:51:19;;;;;;;5.80;4.22;;;;;;;18.59;66.36;99998.81;4872434;28;98170;-68
2022/09/08 06:54:08;;;;;;;7.70;4.75;;;;;;;18.71;65.94;100005.50;4922357;28;98964;-77
2022/09/08 06:56:51;;;;;;;5.43;4.40;;;;;;;18.89;65.62;100007.72;4901820;28;98275;-69
2022/09/08 06:59:48;;;;;;;5.95;4.10;;;;;;;19.11;65.41;99983.94;4870898;28;98054;-77
2022/09/08 07:02:45;;;;;;;6.00;4.35;;;;;;;19.45;64.71;99987.44;4878177;28;98160;-68
2022/09/08 07:05:39;;;;;;;7.47;4.63;;;;;;;19.77;64.27;100013.19;4906516;28;98990;-69
2022/09/08 07:08:33;;;;;;;7.88;4.57;;;;;;;19.95;64.48;100014.56;4916394;28;98290;-76
2022/09/08 07:11:29;;;;;;;7.57;4.32;;;;;;;20.40;63.34;99988.22;4884766;28;98965;-77
2022/09/08 07:14:38;;;;;;;7.45;4.28;;;;;;;20.55;63.21;99987.53;4904466;28;98254;-69
2022/09/08 07:17:32;;;;;;;6.95;4.00;;;;;;;20.54;63.50;100014.09;4900056;28;97961;-77
2022/09/08 07:19:59;;;;;;;7.10;4.00;;;;;;;20.63;63.60;100011.22;4883011;28;99135;-77
2022/09/08 07:23:11;;;;;;;7.63;4.57;;;;;;;20.72;63.35;99991.94;4876216;28;98323;-78
2022/09/08 07:26:05;;;;;;;9.70;4.75;;;;;;;20.68;63.55;99977.34;4887862;28;98377;-77
2022/09/08 07:28:49;;;;;;;5.20;4.10;;;;;;;20.65;63.62;99986.25;4884315;28;97940;-77
2022/09/08 07:31:22;;;;;;;6.47;3.97;;;;;;;20.59;63.63;99980.22;4889196;28;98012;-77
2022/09/08 07:34:06;;;;;;;10.18;4.88;;;;;;;20.55;63.99;99980.13;4853069;28;98079;-68
2022/09/08 07:37:10;;;;;;;7.78;4.28;;;;;;;20.56;63.78;99986.41;4884728;28;98413;-77
2022/09/08 07:40:18;;;;;;;6.35;3.95;;;;;;;20.54;63.86;99983.19;4907011;28;97895;-78
2022/09/08 07:42:59;;;;;;;6.63;4.07;;;;;;;20.46;64.02;99984.88;4894692;28;98863;-77
2022/09/08 07:45:40;;;;;;;6.40;3.78;;;;;;;20.43;63.88;99988.31;4867001;28;98110;-69
2022/09/08 07:48:39;;;;;;;6.68;4.00;;;;;;;20.38;64.09;99991.28;4873223;28;98005;-77
2022/09/08 07:51:16;;;;;;;4.88;3.63;;;;;;;20.34;64.26;99985.72;4910166;28;98247;-77
2022/09/08 07:53:55;;;;;;;8.57;3.53;;;;;;;20.34;64.33;99980.22;4883516;28;98377;-77
2022/09/08 07:56:46;;;;;;;5.70;3.58;;;;;;;20.38;63.97;99980.34;4906917;28;98069;-69
2022/09/08 07:59:47;;;;;;;5.93;3.63;;;;;;;20.35;63.99;99986.50;4892909;28;98158;-68
2022/09/08 08:02:42;;;;;;;6.53;4.00;;;;;;;20.29;64.13;99985.94;4895614;28;97979;-77
2022/09/08 08:05:33;;;;;;;7.63;3.47;;;;;;;20.24;64.23;99986.19;4893462;28;98015;-68
2022/09/08 08:08:13;;;;;;;4.60;3.38;;;;;;;20.20;64.28;99987.19;4879012;28;97851;-68
2022/09/08 08:11:06;;;;;;;7.10;3.78;;;;;;;20.16;64.36;99995.31;4905132;28;98185;-68
2022/09/08 08:14:08;;;;;;;7.57;4.18;;;;;;;20.14;64.36;99992.13;4904795;28;100347;-77
2022/09/08 08:16:49;;;;;;;5.68;3.35;;;;;;;20.10;64.35;99996.69;4899746;28;97847;-68
2022/09/08 08:19:36;;;;;;;5.15;3.42;;;;;;;20.03;64.49;100001.91;4888909;28;98122;-77
2022/09/08 08:22:40;;;;;;;6.70;3.88;;;;;;;20.00;64.77;100005.31;4899871;28;97855;-77
2022/09/08 08:25:44;;;;;;;7.05;3.75;;;;;;;19.96;64.70;100002.47;4903783;28;98001;-68
2022/09/08 08:28:20;;;;;;;5.85;3.55;;;;;;;19.94;64.61;100003.97;4889434;28;99402;-68
2022/09/08 08:31:25;;;;;;;6.50;3.95;;;;;;;19.95;64.65;100011.81;4894958;28;97738;-77
2022/09/08 08:34:32;;;;;;;7.57;3.88;;;;;;;19.92;64.89;100007.03;4902608;28;98320;-77
2022/09/08 08:37:05;;;;;;;6.68;3.58;;;;;;;19.94;64.71;100006.72;4880101;28;98861;-77
2022/09/08 08:39:33;;;;;;;6.78;3.95;;;;;;;19.96;64.97;100013.41;4906635;28;98242;-68
2022/09/08 08:42:29;;;;;;;6.07;3.97;;;;;;;20.00;64.69;100013.53;4875113;28;98538;-69
2022/09/08 08:45:26;;;;;;;6.28;4.07;;;;;;;20.04;64.65;100023.47;4903590;28;99632;-68
2022/09/08 08:48:26;;;;;;;5.97;3.67;;;;;;;20.18;64.56;100034.06;4888076;28;97978;-69
2022/09/08 08:51:23;;;;;;;6.05;3.88;;;;;;;20.38;64.40;100037.03;4899495;28;98328;-69
2022/09/08 08:53:55;;;;;;;4.65;3.33;;;;;;;;;;4893693;28;99091;-69
2022/09/08 08:56:23;;;;;;;;;;;;;;;20.75;63.51;100043.25;4904605;28;97619;-77
2022/09/08 08:59:20;;;;;;;5.90;3.80;;;;;;;20.75;63.85;100037.78;4904884;28;99856;-69
2022/09/08 09:02:01;;;;;;;5.43;3.97;;;;;;;20.70;64.10;100038.03;4911250;28;98677;-69
2022/09/08 09:04:52;;;;;;;6.38;4.07;;;;;;;20.67;64.32;100046.94;4918488;28;97899;-69
2022/09/08 09:07:46;;;;;;;5.45;4.28;;;;;;;20.66;64.33;100042.59;4908140;28;97935;-77
2022/09/08 09:10:34;;;;;;;8.13;4.78;;;;;;;20.68;64.23;100037.59;4891777;28;98178;-69
2022/09/08 09:13:33;;;;;;;6.18;4.43;;;;;;;20.67;63.99;100036.81;4911179;28;97887;-69
2022/09/08 09:16:31;;;;;;;6.47;4.15;;;;;;;20.73;64.01;100029.13;4895268;28;98453;-69
2022/09/08 09:19:38;;;;;;;7.70;4.03;;;;;;;20.75;64.08;100027.66;4874961;28;97908;-69
2022/09/08 09:22:21;;;;;;;5.55;4.00;;;;;;;20.86;63.88;100025.22;4903794;28;99139;-69
2022/09/08 09:25:19;;;;;;;8.48;5.07;;;;;;;20.97;63.53;100020.03;4885552;28;97899;-69
2022/09/08 09:27:58;;;;;;;6.20;4.45;;;;;;;21.00;63.38;100022.09;4917732;28;97727;-69
2022/09/08 09:30:38;;;;;;;7.18;4.55;;;;;;;21.03;63.63;100016.72;4890990;28;98877;-68
2022/09/08 09:33:39;;;;;;;6.93;4.47;;;;;;;21.11;63.32;100012.25;4888486;28;98476;-69
2022/09/08 09:36:38;;;;;;;8.02;4.22;;;;;;;21.11;63.41;100020.47;4918245;28;97878;-78
2022/09/08 09:40:01;;;;;;;7.50;4.38;;;;;;;21.21;63.10;100017.22;4866431;28;97949;-77
2022/09/08 09:42:52;;;;;;;6.65;4.00;;;;;;;21.26;62.87;100013.41;4921991;28;98597;-77
2022/09/08 09:46:16;;;;;;;16.85;7.72;;;;;;;21.29;62.95;100020.94;4884756;28;97882;-77
2022/09/08 09:49:40;;;;;;;10.32;5.32;;;;;;;21.26;62.97;100024.38;4900217;28;98074;-68
2022/09/08 09:52:34;;;;;;;7.90;4.55;;;;;;;21.17;63.17;100013.56;4888807;28;97988;-77
2022/09/08 09:55:12;;;;;;;6.20;4.38;;;;;;;21.11;63.40;100020.47;4915093;28;97844;-69
2022/09/08 09:58:08;;;;;;;5.40;3.63;;;;;;;21.08;63.52;100015.69;4917508;28;98113;-69
2022/09/08 10:01:36;;;;;;;5.97;3.50;;;;;;;21.09;63.25;100017.25;4886175;28;98082;-78
2022/09/08 10:04:46;;;;;;;5.68;3.08;;;;;;;21.05;63.37;99997.97;4898853;28;98112;-78
2022/09/08 10:07:31;;;;;;;4.10;2.35;;;;;;;21.02;63.58;100011.56;4873164;28;98052;-69
2022/09/08 10:10:25;;;;;;;6.88;2.50;;;;;;;21.02;63.52;100008.84;4890479;28;98205;-70
2022/09/08 10:13:35;;;;;;;4.07;2.30;;;;;;;21.10;63.46;100016.09;4895609;28;98019;-69
2022/09/08 10:16:41;;;;;;;2.33;1.70;;;;;;;21.11;63.09;100012.25;4881393;28;97968;-78
2022/09/08 10:19:58;;;;;;;2.17;1.33;;;;;;;21.15;62.97;100012.34;4918159;28;97905;-69
2022/09/08 10:22:51;;;;;;;1.65;1.05;;;;;;;21.18;63.03;100014.38;4915833;28;98217;-69
2022/09/08 10:25:27;;;;;;;3.10;1.35;;;;;;;21.22;62.73;100007.03;4900562;28;97937;-70
2022/09/08 10:28:32;;;;;;;2.95;1.50;;;;;;;21.24;62.74;100002.81;4887429;28;97906;-71
2022/09/08 10:31:27;;;;;;;1.88;1.17;;;;;;;21.24;62.73;100005.56;4906070;28;100803;-71
2022/09/08 10:34:21;;;;;;;4.35;1.33;;;;;;;21.25;62.77;100001.66;4903381;28;97932;-70
2022/09/08 10:37:04;;;;;;;2.42;1.20;;;;;;;21.25;62.83;99995.38;4901893;28;98279;-78
2022/09/08 10:40:34;;;;;;;2.28;1.00;;;;;;;21.27;62.62;100004.84;4883616;28;98218;-70
2022/09/08 10:43:33;;;;;;;2.78;1.17;;;;;;;21.17;63.00;99990.84;4860340;28;98115;-78
2022/09/08 10:46:23;;;;;;;2.63;1.50;;;;;;;21.10;63.21;99994.19;4888906;28;98235;-71
2022/09/08 10:49:04;;;;;;;2.78;1.30;;;;;;;21.06;63.45;99994.13;4900815;28;97942;-72
2022/09/08 10:51:44;;;;;;;3.33;1.57;;;;;;;21.06;63.07;99996.84;4901998;28;98486;-77
2022/09/08 10:54:46;;;;;;;3.30;0.88;;;;;;;21.04;63.68;100004.63;4902136;28;98031;-78
2022/09/08 10:57:37;;;;;;;3.63;1.35;;;;;;;21.03;63.31;99994.00;4889446;28;97863;-70
2022/09/08 11:00:18;;;;;;;7.75;1.30;;;;;;;21.06;63.14;99998.78;4854262;28;98051;-77
2022/09/08 11:03:32;;;;;;;2.20;1.40;;;;;;;21.13;63.09;100012.69;4846391;28;99612;-71
2022/09/08 11:06:25;;;;;;;1.98;0.95;;;;;;;21.22;63.08;100018.81;4875646;28;97828;-78
2022/09/08 11:09:37;;;;;;;2.10;1.20;;;;;;;21.36;62.71;100014.91;4901086;28;98144;-78
2022/09/08 11:12:34;;;;;;;3.42;0.82;;;;;;;21.40;62.66;100022.06;4880579;28;97945;-71
2022/09/08 11:15:13;;;;;;;1.23;0.70;;;;;;;21.29;62.80;100016.25;4896069;28;98394;-71
2022/09/08 11:17:47;;;;;;;4.15;0.90;;;;;;;21.18;63.40;100011.63;4888540;28;98052;-71
2022/09/08 11:21:08;;;;;;;1.25;0.60;;;;;;;21.05;63.38;99997.97;4885419;28;98337;-71
2022/09/08 11:23:43;;;;;;;2.38;0.80;;;;;;;20.88;63.61;100001.03;4881618;28;98209;-71
2022/09/08 11:26:44;;;;;;;1.55;0.65;;;;;;;20.76;63.78;100001.84;4901185;28;98078;-78
2022/09/08 11:29:17;;;;;;;0.95;0.40;;;;;;;20.65;64.12;100010.91;4891972;28;100806;-72
2022/09/08 11:32:10;;;;;;;1.90;0.60;;;;;;;20.54;64.31;100003.16;4857166;28;98816;-77
2022/09/08 11:35:07;;;;;;;2.30;0.82;;;;;;;20.46;64.36;99992.31;4888218;28;98321;-72
2022/09/08 11:37:48;;;;;;;0.93;0.30;;;;;;;20.39;65.03;99992.88;4883556;28;97868;-71
2022/09/08 11:40:47;;;;;;;1.10;0.50;;;;;;;20.34;64.89;99984.91;4908955;28;98488;-77
2022/09/08 11:43:56;;;;;;;2.35;0.70;;;;;;;20.36;64.55;99974.44;4929030;28;98112;-76
2022/09/08 11:46:47;;;;;;;1.55;0.50;;;;;;;20.39;64.59;99981.13;4886870;28;97888;-78
2022/09/08 11:49:44;;;;;;;3.70;0.68;;;;;;;20.39;64.53;99984.66;4888022;28;98514;-70
2022/09/08 11:52:57;;;;;;;1.25;0.30;;;;;;;20.44;64.27;99976.25;4888551;28;98065;-79
2022/09/08 11:55:38;;;;;;;0.68;0.35;;;;;;;20.39;64.46;99983.88;4882671;28;98148;-69
2022/09/08 11:58:52;;;;;;;1.17;0.40;;;;;;;20.33;64.61;99994.28;4882670;28;98000;-78
2022/09/08 12:01:55;;;;;;;0.90;0.30;;;;;;;20.24;65.07;99988.09;4879694;28;98911;-79
2022/09/08 12:04:42;;;;;;;1.25;0.30;;;;;;;20.19;64.85;99989.13;4851593;28;98095;-71
2022/09/08 12:07:35;;;;;;;0.50;0.15;;;;;;;20.07;65.08;99989.16;4905394;28;98157;-71
2022/09/08 12:10:54;;;;;;;1.38;0.30;;;;;;;20.00;65.36;99997.94;4907741;28;97873;-78
2022/09/08 12:21:56;;;;;;;0.80;0.10;;;;;;;19.74;65.87;99992.00;4900348;26;98255;-67
2022/09/08 12:24:48;;;;;;;1.95;0.20;;;;;;;19.67;65.82;99992.53;4901174;28;98252;-77
2022/09/08 12:27:40;;;;;;;1.40;0.17;;;;;;;19.61;66.16;99993.88;4885409;28;99523;-68
2022/09/08 12:30:21;;;;;;;0.40;0.10;;;;;;;19.58;66.16;99986.34;4883452;28;97965;-78
2022/09/08 12:33:31;;;;;;;1.63;0.10;;;;;;;19.52;66.34;99991.22;4851888;28;97974;-68
2022/09/08 12:36:24;;;;;;;1.27;0.20;;;;;;;19.47;66.54;99991.44;4851771;28;98414;-68
2022/09/08 12:39:09;;;;;;;1.27;0.20;;;;;;;19.42;66.15;99985.41;4872819;28;98082;-68
2022/09/08 12:41:38;;;;;;;0.30;0.10;;;;;;;19.38;66.77;99985.28;4855529;28;98172;-78